Acton, MT

1:29 AM MDT on August 29, 2014 (GMT -0600)
Ironwood MT | Change Station
CLOSE
Current Station
Personal Weather Station
Location: Billings, MT
Elevation: 3504 ft
Nearby Weather Stations

Elev 3504 ft 45.82 °N, 108.66 °W | Updated 10 seconds ago

Overcast
Overcast
63.5 °F
Feels Like 63.5 °F
N
4.9
Wind Variable Wind from WSW
Gusts 8.0 mph

Today
High -- | Low -- °F
--% Chance of Precip.
Yesterday
High -- | Low -- °F
Precip. -- in
6:32 AM 7:58 PM
Waxing Crescent, 12% visible
Pressure 29.86 in
Visibility 10.0 miles
Clouds Few 7000 ft
Scattered Clouds 11000 ft
Overcast 15000 ft
Dew Point 56 °F
Humidity 76%
Rainfall 0.00 in
Snow Depth Not available.
UV 0 out of 12
Pollen 8.80 out of 12
Air Quality Not available.
Flu Activity Not available.
METAR KBIL 290653Z 25014KT 10SM FEW070 SCT110 OVC150 19/12 A2997 RMK AO2 RAE14B29E36 TSE14 SLP112 FRQ LTG DSNT E SW CB DSNT E SW P0002 T01940122 403170150

More Conditions Fewer Conditions

Pressure 29.86 in
Visibility 10.0 miles
Clouds Few 7000 ft
Scattered Clouds 11000 ft
Overcast 15000 ft
Dew Point 56 °F
Humidity 76%
Rainfall 0.00 in
Snow Depth Not available.
UV 0 out of 12
Pollen 8.80 out of 12
Air Quality Not available.
Flu Activity Not available.
METAR KBIL 290653Z 25014KT 10SM FEW070 SCT110 OVC150 19/12 A2997 RMK AO2 RAE14B29E36 TSE14 SLP112 FRQ LTG DSNT E SW CB DSNT E SW P0002 T01940122 403170150

More Conditions Fewer Conditions

10-Day Weather Forecast

Almanac

Astronomy

Aug. 29, 2014 Rise Set
Actual Time 6:32 AM MDT 7:58 PM MDT
Civil Twilight 6:00 AM MDT 8:29 PM MDT
Nautical Twilight 5:23 AM MDT 9:07 PM MDT
Astronomical Twilight 4:42 AM MDT 9:47 PM MDT
Moon 10:39 AM MDT 9:42 PM MDT
Length of Visible Light 14h 28m
Length of Day
13h 26m
Tomorrow will be 3m 6s shorter.
Waxing Crescent, 12% of the Moon is Illuminated
Today
Waxing Crescent
Sep 2
First Quarter
Sep 8
Full
Sep 15
Last Quarter
Sep 24
New

Today's Extremes

State Highs State Lows

Community

WunderPhotos

Upload Photos

1,748,197 photos uploaded!

Nearby

Snow Depth

Station Depth Elevation
Cole Creek 0 in 7850 ft
Burnt Mountain 0 in 5880 ft
Crystal Lake 1 in 6050 ft
Placer Basin 0 in 8830 ft
White Mill 2 in 8700 ft

Earthquake Activity

City Distance Mag. Time & Date
No recent earthquake activity has been reported nearby.
Minimum magnitude displayed is 2.5.

Coastal Water Temperatures

Place Temperature
No Stations Reporting

Nearby Weather Stations